createdAt,value
2023-03-12T00:01:30.568Z,60.87
2023-03-12T00:04:02.162Z,60.64
2023-03-12T00:06:30.619Z,60.68
2023-03-12T00:09:01.335Z,60.72
2023-03-12T00:11:29.720Z,60.80
2023-03-12T00:14:03.317Z,60.61
2023-03-12T00:16:33.102Z,60.82
2023-03-12T00:19:05.602Z,60.91
2023-03-12T00:21:33.636Z,61.23
2023-03-12T00:24:01.714Z,61.42
2023-03-12T00:26:30.657Z,61.47
2023-03-12T00:28:59.806Z,61.74
2023-03-12T00:31:41.151Z,62.08
2023-03-12T00:34:10.452Z,62.15
2023-03-12T00:36:40.760Z,62.33
2023-03-12T00:39:10.342Z,62.54
2023-03-12T00:41:38.289Z,62.65
2023-03-12T00:44:06.354Z,62.62
2023-03-12T00:46:34.518Z,62.75
2023-03-12T00:49:02.823Z,62.74
2023-03-12T00:51:30.942Z,62.93
2023-03-12T00:53:58.968Z,63.28
2023-03-12T00:56:27.167Z,63.58
2023-03-12T00:58:57.994Z,63.90
2023-03-12T01:01:29.155Z,64.08
2023-03-12T01:03:59.188Z,64.32
2023-03-12T01:06:28.320Z,64.67
2023-03-12T01:08:56.320Z,64.67
2023-03-12T01:11:24.660Z,64.77
2023-03-12T01:13:52.682Z,64.81
2023-03-12T01:16:20.745Z,65.02
2023-03-12T01:18:48.811Z,65.24
2023-03-12T01:21:16.811Z,65.33
2023-03-12T01:23:45.184Z,65.39
2023-03-12T01:26:14.773Z,65.65
2023-03-12T01:28:42.911Z,65.94
2023-03-12T01:31:15.389Z,66.07
2023-03-12T01:33:49.146Z,66.30
2023-03-12T01:36:21.780Z,66.19
2023-03-12T01:38:55.105Z,66.29
2023-03-12T01:41:26.271Z,66.67
2023-03-12T01:43:54.360Z,66.98
2023-03-12T01:46:34.856Z,67.06
2023-03-12T01:49:20.342Z,67.44
2023-03-12T01:52:08.637Z,67.49
2023-03-12T01:54:58.471Z,67.78
2023-03-12T01:57:35.693Z,68.24
2023-03-12T02:00:26.860Z,68.12
2023-03-12T02:03:04.265Z,68.36
2023-03-12T02:06:06.212Z,68.31
2023-03-12T02:08:42.848Z,68.52
2023-03-12T02:11:15.950Z,68.64
2023-03-12T02:13:44.461Z,68.67
2023-03-12T02:16:12.881Z,68.79
2023-03-12T02:18:40.918Z,69.07
2023-03-12T02:21:17.773Z,68.89
2023-03-12T02:24:14.842Z,69.00
2023-03-12T02:26:42.921Z,69.04
2023-03-12T02:29:11.893Z,69.00
2023-03-12T02:31:49.825Z,69.02
2023-03-12T02:34:17.900Z,69.09
2023-03-12T02:36:48.376Z,68.90
2023-03-12T02:39:16.482Z,68.83
2023-03-12T02:42:05.351Z,68.80
2023-03-12T02:44:33.774Z,68.71
2023-03-12T02:47:03.271Z,68.59
2023-03-12T02:49:35.167Z,68.57
2023-03-12T02:52:06.921Z,68.45
2023-03-12T02:54:35.346Z,68.40
2023-03-12T02:57:03.677Z,68.38
2023-03-12T02:59:33.816Z,68.42
2023-03-12T03:02:02.609Z,68.64
2023-03-12T03:04:31.582Z,68.70
2023-03-12T03:07:00.367Z,68.58
2023-03-12T03:09:29.023Z,68.55
2023-03-12T03:11:57.082Z,68.55
2023-03-12T03:14:26.083Z,68.67
2023-03-12T03:16:56.442Z,68.80
2023-03-12T03:19:25.284Z,69.01
2023-03-12T03:21:54.604Z,68.86
2023-03-12T03:24:22.722Z,69.02
2023-03-12T03:26:52.345Z,69.16
2023-03-12T03:29:21.263Z,69.17
2023-03-12T03:31:49.386Z,69.30
2023-03-12T03:34:18.047Z,69.35
2023-03-12T03:36:46.142Z,69.30
2023-03-12T03:39:15.447Z,69.46
2023-03-12T03:41:45.905Z,69.65
2023-03-12T03:44:14.568Z,69.59
2023-03-12T03:46:43.923Z,69.82
2023-03-12T03:49:12.298Z,70.18
2023-03-12T03:51:42.924Z,70.15
2023-03-12T03:54:12.805Z,70.32
2023-03-12T03:56:41.377Z,70.25
2023-03-12T03:59:10.143Z,70.54
2023-03-12T04:01:39.208Z,70.55
2023-03-12T04:04:07.680Z,70.90
2023-03-12T04:06:36.139Z,70.72
2023-03-12T04:09:05.327Z,70.46
2023-03-12T04:11:34.220Z,70.79
2023-03-12T04:14:02.404Z,70.75
2023-03-12T04:16:32.355Z,70.48
2023-03-12T04:19:01.026Z,70.76
2023-03-12T04:21:29.366Z,70.45
2023-03-12T04:23:57.477Z,70.42
2023-03-12T04:26:29.097Z,70.40
2023-03-12T04:28:57.480Z,70.41
2023-03-12T04:31:26.348Z,70.45
2023-03-12T04:33:54.875Z,70.38
2023-03-12T04:36:24.252Z,70.14
2023-03-12T04:38:53.321Z,70.03
2023-03-12T04:41:25.488Z,69.93
2023-03-12T04:43:58.052Z,70.06
2023-03-12T04:46:26.756Z,69.98
2023-03-12T04:48:55.569Z,69.78
2023-03-12T04:51:24.324Z,69.87
2023-03-12T04:53:52.549Z,69.78
2023-03-12T04:56:20.744Z,69.67
2023-03-12T04:58:49.305Z,69.50
2023-03-12T05:01:29.406Z,69.62
2023-03-12T05:03:57.804Z,69.42
2023-03-12T05:06:26.337Z,69.24
2023-03-12T05:08:55.176Z,68.96
2023-03-12T05:11:23.689Z,68.98
2023-03-12T05:13:52.140Z,69.02
2023-03-12T05:16:20.381Z,69.11
2023-03-12T05:18:48.547Z,68.78
2023-03-12T05:21:20.234Z,68.80
2023-03-12T05:23:48.791Z,68.81
2023-03-12T05:26:27.427Z,68.90
2023-03-12T05:29:01.356Z,68.74
2023-03-12T05:31:32.523Z,69.00
2023-03-12T05:34:03.055Z,68.87
2023-03-12T05:36:31.194Z,68.90
2023-03-12T05:38:59.999Z,68.80
2023-03-12T05:41:29.833Z,68.89
2023-03-12T05:44:01.226Z,68.35
2023-03-12T05:46:29.609Z,67.85
2023-03-12T05:48:59.982Z,67.35
2023-03-12T05:51:28.532Z,66.79
2023-03-12T05:53:56.918Z,65.97
2023-03-12T05:56:24.999Z,65.07
2023-03-12T05:58:53.131Z,64.82
2023-03-12T06:01:25.808Z,63.29
2023-03-12T06:04:00.130Z,62.80
2023-03-12T06:06:32.285Z,62.37
2023-03-12T06:09:09.175Z,61.38
2023-03-12T06:11:37.239Z,60.61
2023-03-12T06:14:05.826Z,59.82
2023-03-12T06:16:38.846Z,59.11
2023-03-12T06:19:08.626Z,59.25
2023-03-12T06:21:36.714Z,59.20
2023-03-12T06:24:10.641Z,58.62
2023-03-12T06:26:46.705Z,58.33
2023-03-12T06:29:16.105Z,58.23
2023-03-12T06:31:44.901Z,58.43
2023-03-12T06:34:16.219Z,58.47
2023-03-12T06:36:46.017Z,58.71
2023-03-12T06:39:16.656Z,58.92
2023-03-12T06:41:44.929Z,58.71
2023-03-12T06:44:13.829Z,58.96
2023-03-12T06:46:43.723Z,58.97
2023-03-12T06:49:12.216Z,58.58
2023-03-12T06:51:43.892Z,58.55
2023-03-12T06:54:12.173Z,58.19
2023-03-12T06:56:41.768Z,58.47
2023-03-12T06:59:09.933Z,58.61
2023-03-12T07:01:38.513Z,59.15
2023-03-12T07:04:07.025Z,59.75
2023-03-12T07:06:36.131Z,58.76
2023-03-12T07:09:05.833Z,58.15
2023-03-12T07:11:34.008Z,58.02
2023-03-12T07:14:02.067Z,58.53
2023-03-12T07:16:30.821Z,58.76
2023-03-12T07:18:58.867Z,59.16
2023-03-12T07:21:31.047Z,59.06
2023-03-12T07:24:00.240Z,57.82
2023-03-12T07:26:28.390Z,56.68
2023-03-12T07:28:57.171Z,56.31
2023-03-12T07:31:26.692Z,54.56
2023-03-12T07:33:55.161Z,53.02
2023-03-12T07:36:23.904Z,51.16
2023-03-12T07:38:52.213Z,49.81
2023-03-12T07:41:20.682Z,50.24
2023-03-12T07:43:49.462Z,49.91
2023-03-12T07:46:18.858Z,49.69
2023-03-12T07:48:48.617Z,49.71
2023-03-12T07:51:19.056Z,49.51
2023-03-12T07:53:47.772Z,49.19
2023-03-12T07:56:16.332Z,49.47
2023-03-12T07:58:44.728Z,49.58
2023-03-12T08:01:13.392Z,48.85
2023-03-12T08:03:42.499Z,49.75
2023-03-12T08:06:10.810Z,50.42
2023-03-12T08:08:41.321Z,50.55
2023-03-12T08:11:09.600Z,50.19
2023-03-12T08:13:37.729Z,49.44
2023-03-12T08:16:09.280Z,50.23
2023-03-12T08:18:37.798Z,49.44
2023-03-12T08:21:05.967Z,49.50
2023-03-12T08:23:35.134Z,49.56
2023-03-12T08:26:03.351Z,49.71
2023-03-12T08:28:31.531Z,50.25
2023-03-12T08:31:00.523Z,49.72
2023-03-12T08:33:29.228Z,49.28
2023-03-12T08:35:57.450Z,48.40
2023-03-12T08:38:25.546Z,47.28
2023-03-12T08:40:58.417Z,47.58
2023-03-12T08:43:29.289Z,47.79
2023-03-12T08:46:00.631Z,47.93
2023-03-12T08:48:32.615Z,47.74
2023-03-12T08:51:05.277Z,47.88
2023-03-12T08:53:35.707Z,47.62
2023-03-12T08:56:04.871Z,47.37
2023-03-12T08:58:32.970Z,46.44
2023-03-12T09:01:11.242Z,47.16
2023-03-12T09:03:41.064Z,46.36
2023-03-12T09:06:16.299Z,46.73
2023-03-12T09:08:45.087Z,46.33
2023-03-12T09:11:15.214Z,45.85
2023-03-12T09:14:33.549Z,45.92
2023-03-12T09:16:32.901Z,45.25
2023-03-12T09:19:01.816Z,44.91
2023-03-12T09:21:30.337Z,44.89
2023-03-12T09:23:58.645Z,44.69
2023-03-12T09:26:26.712Z,45.51
2023-03-12T09:28:54.763Z,45.37
2023-03-12T09:31:23.837Z,45.35
2023-03-12T09:33:52.243Z,45.12
2023-03-12T09:36:20.404Z,45.50
2023-03-12T09:38:49.762Z,46.16
2023-03-12T09:41:35.104Z,44.08
2023-03-12T09:44:28.553Z,43.78
2023-03-12T09:47:02.674Z,42.86
2023-03-12T09:49:53.668Z,42.65
2023-03-12T09:52:39.773Z,42.11
2023-03-12T09:55:15.929Z,42.43
2023-03-12T09:57:47.787Z,42.66
2023-03-12T10:00:23.546Z,42.48
2023-03-12T10:03:15.469Z,42.59
2023-03-12T10:06:11.124Z,42.52
2023-03-12T10:08:55.452Z,42.23
2023-03-12T10:11:49.871Z,42.60
2023-03-12T10:14:49.527Z,42.60
2023-03-12T10:17:48.365Z,42.35
2023-03-12T10:20:34.683Z,41.54
2023-03-12T10:23:20.949Z,41.36
2023-03-12T10:26:15.685Z,41.30
2023-03-12T10:29:15.819Z,41.23
2023-03-12T10:32:06.636Z,41.40
2023-03-12T10:35:02.608Z,41.13
2023-03-12T10:38:00.842Z,41.10
2023-03-12T10:40:38.420Z,41.00
2023-03-12T10:43:06.751Z,40.74
2023-03-12T10:46:27.233Z,40.77
2023-03-12T10:49:23.013Z,40.66
2023-03-12T10:52:23.136Z,40.42
2023-03-12T10:54:53.192Z,40.90
2023-03-12T10:57:21.345Z,39.94
2023-03-12T10:59:50.749Z,40.40
2023-03-12T11:02:42.681Z,39.80
2023-03-12T11:05:30.977Z,38.81
2023-03-12T11:08:04.328Z,37.29
2023-03-12T11:10:32.211Z,36.83
2023-03-12T11:13:20.301Z,36.61
2023-03-12T11:15:49.123Z,35.45
2023-03-12T11:18:35.166Z,34.77
2023-03-12T11:21:10.208Z,33.70
2023-03-12T11:23:59.520Z,33.10
2023-03-12T11:26:36.599Z,32.33
2023-03-12T11:29:26.611Z,31.18
2023-03-12T11:32:10.083Z,31.51
2023-03-12T11:34:39.613Z,32.77
2023-03-12T11:37:57.435Z,32.74
2023-03-12T11:41:11.593Z,32.67
2023-03-12T11:44:19.215Z,34.45
2023-03-12T11:47:14.766Z,35.04
2023-03-12T11:50:21.561Z,35.88
2023-03-12T11:53:07.012Z,35.54
2023-03-12T11:56:15.277Z,35.91
2023-03-12T11:59:01.800Z,36.56
2023-03-12T12:02:12.584Z,36.64
2023-03-12T12:05:06.019Z,36.08
2023-03-12T12:08:08.932Z,35.16
2023-03-12T12:11:13.140Z,34.52
2023-03-12T12:14:15.375Z,34.26
2023-03-12T12:17:04.841Z,32.76
2023-03-12T12:20:08.826Z,31.38
2023-03-12T12:22:57.176Z,30.72
2023-03-12T12:26:01.999Z,29.39
2023-03-12T12:28:38.502Z,29.75
2023-03-12T12:31:51.795Z,29.42
2023-03-12T12:34:43.620Z,28.67
2023-03-12T12:37:48.196Z,28.63
2023-03-12T12:40:43.650Z,27.10
2023-03-12T12:43:27.455Z,26.20
2023-03-12T12:46:02.508Z,27.64
2023-03-12T12:48:54.672Z,26.95
2023-03-12T12:51:52.152Z,25.11
2023-03-12T12:54:51.030Z,24.54
2023-03-12T12:57:38.874Z,23.77
2023-03-12T13:00:19.117Z,22.91
2023-03-12T13:02:49.144Z,22.86
2023-03-12T13:05:49.825Z,22.32
2023-03-12T13:08:40.117Z,21.90
2023-03-12T13:11:20.374Z,21.63
2023-03-12T13:14:11.983Z,21.46
2023-03-12T13:16:45.479Z,20.71
2023-03-12T13:19:13.443Z,19.67
2023-03-12T13:22:15.814Z,19.37
2023-03-12T13:25:14.315Z,20.01
2023-03-12T13:27:45.592Z,19.45
2023-03-12T13:30:35.178Z,19.37
2023-03-12T13:33:13.471Z,19.70
2023-03-12T13:35:42.019Z,20.32
2023-03-12T13:38:18.158Z,20.38
2023-03-12T13:41:03.006Z,19.91
2023-03-12T13:43:37.091Z,20.10
2023-03-12T13:46:15.095Z,20.52
2023-03-12T13:48:48.701Z,20.20
2023-03-12T13:51:28.115Z,19.65
2023-03-12T13:54:02.344Z,19.44
2023-03-12T13:56:33.067Z,19.88
2023-03-12T13:59:17.192Z,19.43
2023-03-12T14:01:50.229Z,19.18
2023-03-12T14:04:29.217Z,19.02
2023-03-12T14:07:47.469Z,19.41
2023-03-12T14:11:09.777Z,19.65
2023-03-12T14:13:43.348Z,19.14
2023-03-12T14:16:41.501Z,19.33
2023-03-12T14:19:14.172Z,19.62
2023-03-12T14:21:46.759Z,19.67
2023-03-12T14:24:47.493Z,20.40
2023-03-12T14:27:23.502Z,21.54
2023-03-12T14:30:22.838Z,22.35
2023-03-12T14:33:01.157Z,23.61
2023-03-12T14:35:48.548Z,26.27
2023-03-12T14:38:24.968Z,27.26
2023-03-12T14:41:39.327Z,28.84
2023-03-12T14:44:24.294Z,29.64
2023-03-12T14:47:17.547Z,30.42
2023-03-12T14:49:46.597Z,31.06
2023-03-12T14:52:26.952Z,31.47
2023-03-12T14:55:11.953Z,31.92
2023-03-12T14:57:41.489Z,32.60
2023-03-12T15:00:36.079Z,32.50
2023-03-12T15:03:11.871Z,32.99
2023-03-12T15:05:48.658Z,33.00
2023-03-12T15:08:18.043Z,33.08
2023-03-12T15:10:54.610Z,33.16
2023-03-12T15:13:25.840Z,32.71
2023-03-12T15:15:55.194Z,33.23
2023-03-12T15:18:33.154Z,33.51
2023-03-12T15:21:03.472Z,33.88
2023-03-12T15:23:35.543Z,34.05
2023-03-12T15:26:11.602Z,34.71
2023-03-12T15:28:40.108Z,34.79
2023-03-12T15:31:16.293Z,34.68
2023-03-12T15:33:44.623Z,35.31
2023-03-12T15:36:26.539Z,35.61
2023-03-12T15:39:12.364Z,36.25
2023-03-12T15:41:47.309Z,35.64
2023-03-12T15:44:22.854Z,35.60
2023-03-12T15:47:03.524Z,35.92
2023-03-12T15:49:35.906Z,35.91
2023-03-12T15:52:18.820Z,36.28
2023-03-12T15:55:11.599Z,36.43
2023-03-12T15:57:47.191Z,37.24
2023-03-12T16:00:21.271Z,37.25
2023-03-12T16:02:53.024Z,38.26
2023-03-12T16:05:26.278Z,38.76
2023-03-12T16:07:54.604Z,39.58
2023-03-12T16:10:26.471Z,40.15
2023-03-12T16:13:03.243Z,40.24
2023-03-12T16:15:36.441Z,41.20
2023-03-12T16:18:05.400Z,42.12
2023-03-12T16:20:33.479Z,42.00
2023-03-12T16:23:01.563Z,41.87
2023-03-12T16:25:30.389Z,42.31
2023-03-12T16:28:02.820Z,42.00
2023-03-12T16:30:35.174Z,42.80
2023-03-12T16:33:08.979Z,42.74
2023-03-12T16:35:37.402Z,42.66
2023-03-12T16:38:06.674Z,42.75
2023-03-12T16:40:40.506Z,42.79
2023-03-12T16:43:15.118Z,43.02
2023-03-12T16:45:46.316Z,43.28
2023-03-12T16:48:18.870Z,43.34
2023-03-12T16:50:55.752Z,43.66
2023-03-12T16:53:24.593Z,43.88
2023-03-12T16:55:58.745Z,44.18
2023-03-12T16:58:28.655Z,43.94
2023-03-12T17:00:57.093Z,44.65
2023-03-12T17:03:33.804Z,44.79
2023-03-12T17:06:05.492Z,44.54
2023-03-12T17:08:35.962Z,44.80
2023-03-12T17:11:19.153Z,45.23
2023-03-12T17:13:52.854Z,45.41
2023-03-12T17:16:21.723Z,45.42
2023-03-12T17:18:50.469Z,45.34
2023-03-12T17:21:21.121Z,45.92
2023-03-12T17:23:50.270Z,46.06
2023-03-12T17:26:18.631Z,46.25
2023-03-12T17:28:46.989Z,45.92
2023-03-12T17:31:15.102Z,46.73
2023-03-12T17:33:44.698Z,47.01
2023-03-12T17:36:12.840Z,46.94
2023-03-12T17:38:40.957Z,47.26
2023-03-12T17:41:25.176Z,47.17
2023-03-12T17:44:03.782Z,47.44
2023-03-12T17:46:32.353Z,47.28
2023-03-12T17:49:00.720Z,47.14
2023-03-12T17:51:31.319Z,47.50
2023-03-12T17:54:04.518Z,48.18
2023-03-12T17:56:33.164Z,48.45
2023-03-12T17:59:01.603Z,47.89
2023-03-12T18:01:30.331Z,47.48
2023-03-12T18:03:58.407Z,48.20
2023-03-12T18:06:26.927Z,48.52
2023-03-12T18:08:57.432Z,48.64
2023-03-12T18:11:27.654Z,49.04
2023-03-12T18:13:55.721Z,49.31
2023-03-12T18:16:23.819Z,49.61
2023-03-12T18:18:52.955Z,49.75
2023-03-12T18:21:21.242Z,49.58
2023-03-12T18:23:49.320Z,48.64
2023-03-12T18:26:19.990Z,49.84
2023-03-12T18:28:48.743Z,50.17
2023-03-12T18:31:17.010Z,49.85
2023-03-12T18:33:46.134Z,49.31
2023-03-12T18:36:14.312Z,49.87
2023-03-12T18:38:42.359Z,50.64
2023-03-12T18:41:12.540Z,50.83
2023-03-12T18:43:41.615Z,52.15
2023-03-12T18:46:10.853Z,50.82
2023-03-12T18:48:38.948Z,51.36
2023-03-12T18:51:07.186Z,52.93
2023-03-12T18:53:35.616Z,52.30
2023-03-12T18:56:05.495Z,52.58
2023-03-12T18:58:33.540Z,53.06
2023-03-12T19:01:01.681Z,52.86
2023-03-12T19:03:35.624Z,52.61
2023-03-12T19:06:11.053Z,52.43
2023-03-12T19:08:42.006Z,52.51
2023-03-12T19:11:14.137Z,52.14
2023-03-12T19:13:42.616Z,52.63
2023-03-12T19:16:14.225Z,52.65
2023-03-12T19:18:42.486Z,52.93
2023-03-12T19:21:10.536Z,53.38
2023-03-12T19:23:38.662Z,54.35
2023-03-12T19:26:08.102Z,53.58
2023-03-12T19:28:37.349Z,54.30
2023-03-12T19:31:09.319Z,54.92
2023-03-12T19:33:39.492Z,53.48
2023-03-12T19:36:09.165Z,53.17
2023-03-12T19:38:37.684Z,53.24
2023-03-12T19:41:08.351Z,53.51
2023-03-12T19:43:37.552Z,54.80
2023-03-12T19:46:06.011Z,55.07
2023-03-12T19:48:33.974Z,56.90
2023-03-12T19:51:08.931Z,55.89
2023-03-12T19:53:37.679Z,55.37
2023-03-12T19:56:06.199Z,54.86
2023-03-12T19:58:34.907Z,55.87
2023-03-12T20:01:03.783Z,56.13
2023-03-12T20:03:32.513Z,55.09
2023-03-12T20:06:01.176Z,55.74
2023-03-12T20:08:31.902Z,54.75
2023-03-12T20:11:09.194Z,54.98
2023-03-12T20:13:38.229Z,55.64
2023-03-12T20:16:07.990Z,56.06
2023-03-12T20:18:36.251Z,55.81
2023-03-12T20:21:04.454Z,56.28
2023-03-12T20:23:32.450Z,56.62
2023-03-12T20:26:00.438Z,56.73
2023-03-12T20:28:28.560Z,57.23
2023-03-12T20:30:57.807Z,56.85
2023-03-12T20:33:25.826Z,56.96
2023-03-12T20:35:55.358Z,57.19
2023-03-12T20:38:23.323Z,57.67
2023-03-12T20:40:51.366Z,59.03
2023-03-12T20:43:19.301Z,58.36
2023-03-12T20:45:48.146Z,58.98
2023-03-12T20:48:17.230Z,59.62
2023-03-12T20:50:45.641Z,59.36
2023-03-12T20:53:13.681Z,59.93
2023-03-12T20:55:41.825Z,59.97
2023-03-12T20:58:09.797Z,59.33
2023-03-12T21:00:38.186Z,59.31
2023-03-12T21:03:06.287Z,60.36
2023-03-12T21:05:34.438Z,61.05
2023-03-12T21:08:02.911Z,60.72
2023-03-12T21:10:31.692Z,60.25
2023-03-12T21:12:59.816Z,59.76
2023-03-12T21:15:28.048Z,59.94
2023-03-12T21:17:56.126Z,60.19
2023-03-12T21:20:24.077Z,60.74
2023-03-12T21:22:52.153Z,59.96
2023-03-12T21:25:20.436Z,60.60
2023-03-12T21:27:51.471Z,61.09
2023-03-12T21:30:20.230Z,60.37
2023-03-12T21:32:48.352Z,61.32
2023-03-12T21:35:16.710Z,61.20
2023-03-12T21:37:45.120Z,60.65
2023-03-12T21:40:14.076Z,61.32
2023-03-12T21:42:42.251Z,60.67
2023-03-12T21:45:10.938Z,61.71
2023-03-12T21:47:40.667Z,62.24
2023-03-12T21:50:10.397Z,62.29
2023-03-12T21:52:41.275Z,62.36
2023-03-12T21:55:11.314Z,61.86
2023-03-12T21:57:39.313Z,62.64
2023-03-12T22:00:13.514Z,62.40
2023-03-12T22:02:44.056Z,61.79
2023-03-12T22:05:12.201Z,61.52
2023-03-12T22:07:40.319Z,62.96
2023-03-12T22:10:11.290Z,64.08
2023-03-12T22:12:40.138Z,63.96
2023-03-12T22:15:09.039Z,63.85
2023-03-12T22:17:37.120Z,63.52
2023-03-12T22:20:07.338Z,63.72
2023-03-12T22:22:35.525Z,63.93
2023-03-12T22:25:03.967Z,64.98
2023-03-12T22:27:32.548Z,64.72
2023-03-12T22:30:00.800Z,65.03
2023-03-12T22:32:31.661Z,65.90
2023-03-12T22:34:59.655Z,66.05
2023-03-12T22:37:27.685Z,66.01
2023-03-12T22:40:00.871Z,65.59
2023-03-12T22:42:28.998Z,65.20
2023-03-12T22:44:56.995Z,65.16
2023-03-12T22:47:24.803Z,65.56
2023-03-12T22:49:52.784Z,66.04
2023-03-12T22:52:20.758Z,65.33
2023-03-12T22:54:49.873Z,65.86
2023-03-12T22:57:17.948Z,65.52
2023-03-12T22:59:47.499Z,65.25
2023-03-12T23:02:15.724Z,65.45
2023-03-12T23:04:44.067Z,65.73
2023-03-12T23:07:15.034Z,65.79
2023-03-12T23:09:44.619Z,65.93
2023-03-12T23:12:12.679Z,65.82
2023-03-12T23:14:40.900Z,65.86
2023-03-12T23:17:09.373Z,66.02
2023-03-12T23:19:37.869Z,66.05
2023-03-12T23:22:06.586Z,66.08
2023-03-12T23:24:35.111Z,65.40
2023-03-12T23:27:04.685Z,65.94
2023-03-12T23:29:34.291Z,65.71
2023-03-12T23:32:02.420Z,66.62
2023-03-12T23:34:30.599Z,67.17
2023-03-12T23:36:59.058Z,67.28
2023-03-12T23:39:30.370Z,67.34
2023-03-12T23:41:58.335Z,68.04
2023-03-12T23:44:26.409Z,67.68
2023-03-12T23:46:54.398Z,67.17
2023-03-12T23:49:22.479Z,66.85
2023-03-12T23:51:50.516Z,65.85
2023-03-12T23:54:18.555Z,67.67
2023-03-12T23:56:47.131Z,67.60
2023-03-12T23:59:15.609Z,67.85
